»·PEaware :: N462HA KPSP-KSBA

N462HA :: KPSP-KSBA

FLIGHT INFORMATION

Flight Status: Arrived
Operator: Privately registered:
United States
More flights under this callsign
Pilot: Alan J. (5709)
Aircraft: ANTONOV AN-24
(AN24)
More flights by this aircraft type
Origin: KPSP Palm Springs Intl
United States
Destination: KSBA Santa Barbara Mun
United States
More flights between these airports :: More routes between these airports
Route: +CATH1 PSP V388 PDZ V197 POM V264 ITSME V186 DEANO V27 KWANG
File this flight plan on PilotEdge
Remarks:
Altitude:
(Current/Filed)
20,000ft
Speed:
(Current/Filed)
250kts
Departed: 05-Oct-17 03:28 PM
Arrived: 05-Oct-17 04:24 PM
Distance/Time
Traveled:
169nm/0:56
Distance/Time
To Go:
Arrived

Flight Plot

Page will automatically refresh every two minutes.


Map Options




Map Legend


Flown Route
Filed Route
Departure Airport
Arrival Airport
Navaid (VOR, NDB)
Fix

Horizontal Profiles

Position Reports

Time Latitude Longitude Heading Altitude Ground
Speed
05-Oct-17 15:05 33.823861 -116.506564 194 418ft 0kts
05-Oct-17 15:06 33.823861 -116.506564 194 418ft 0kts
05-Oct-17 15:07 33.823861 -116.506564 194 418ft 0kts
05-Oct-17 15:08 33.823861 -116.506564 194 418ft 0kts
05-Oct-17 15:09 33.823861 -116.506564 194 418ft 0kts
05-Oct-17 15:10 33.823861 -116.506564 194 418ft 0kts
05-Oct-17 15:11 33.823861 -116.506564 194 418ft 0kts
05-Oct-17 15:12 33.823861 -116.506564 194 418ft 0kts
05-Oct-17 15:13 33.823861 -116.506564 194 418ft 0kts
05-Oct-17 15:14 33.824046 -116.506544 172 418ft 2kts
05-Oct-17 15:15 33.824435 -116.506997 98 419ft 2kts
05-Oct-17 15:16 33.824424 -116.507406 86 420ft 0kts
05-Oct-17 15:17 33.824424 -116.507406 86 420ft 0kts
05-Oct-17 15:18 33.824424 -116.507406 86 420ft 0kts
05-Oct-17 15:19 33.824424 -116.507406 86 420ft 0kts
05-Oct-17 15:20 33.824424 -116.507406 86 420ft 0kts
05-Oct-17 15:21 33.824424 -116.507406 86 420ft 0kts
05-Oct-17 15:22 33.824424 -116.507406 86 420ft 0kts
05-Oct-17 15:23 33.824424 -116.507402 86 420ft 0kts
05-Oct-17 15:24 33.824444 -116.506959 86 419ft 1kts
05-Oct-17 15:25 33.824469 -116.506388 88 419ft 4kts
05-Oct-17 15:26 33.823171 -116.504060 116 414ft 17kts
05-Oct-17 15:27 33.818999 -116.500216 143 404ft 5kts
05-Oct-17 15:28 33.818521 -116.499304 87 402ft 2kts
05-Oct-17 15:29 33.818524 -116.499209 87 402ft 0kts
05-Oct-17 15:30 33.818527 -116.499109 87 402ft 2kts
05-Oct-17 15:31 33.819895 -116.498945 319 401ft 37kts
05-Oct-17 15:32 33.851295 -116.523897 327 1636ft 177kts
05-Oct-17 15:33 33.899172 -116.553477 357 3714ft 205kts
05-Oct-17 15:34 33.915535 -116.505346 142 5779ft 196kts
05-Oct-17 15:35 33.861944 -116.512261 185 6800ft 232kts
05-Oct-17 15:36 33.819548 -116.457656 106 8474ft 232kts
05-Oct-17 15:37 33.803892 -116.384469 92 10186ft 227kts
05-Oct-17 15:38 33.811849 -116.308615 82 11577ft 234kts
05-Oct-17 15:39 33.854521 -116.262566 339 12828ft 220kts
05-Oct-17 15:40 33.887699 -116.330586 296 11850ft 278kts
05-Oct-17 15:41 33.930386 -116.408374 302 11975ft 281kts
05-Oct-17 15:42 33.948276 -116.495789 257 11973ft 275kts
05-Oct-17 15:43 33.919840 -116.580602 234 12007ft 275kts
05-Oct-17 15:44 33.917318 -116.667021 305 11918ft 288kts
05-Oct-17 15:45 33.953467 -116.750080 282 12056ft 277kts
05-Oct-17 15:46 33.955237 -116.842848 263 12088ft 274kts
05-Oct-17 15:47 33.942409 -116.933805 258 12042ft 277kts
05-Oct-17 15:48 33.933491 -117.025799 268 12027ft 278kts
05-Oct-17 15:49 33.933952 -117.119134 270 11986ft 278kts
05-Oct-17 15:50 33.935191 -117.217907 270 10291ft 308kts
05-Oct-17 15:51 33.918315 -117.314083 231 8870ft 286kts
05-Oct-17 15:52 33.895161 -117.390016 277 9014ft 244kts
05-Oct-17 15:53 33.892327 -117.474824 287 8881ft 279kts
05-Oct-17 15:54 33.935945 -117.551496 304 9184ft 280kts
05-Oct-17 15:55 33.982124 -117.626184 307 9292ft 289kts
05-Oct-17 15:56 34.018079 -117.713974 274 8511ft 301kts
05-Oct-17 15:57 34.016516 -117.810268 266 8974ft 275kts
05-Oct-17 15:58 34.013324 -117.902251 271 9049ft 275kts
05-Oct-17 15:59 34.047846 -117.981970 314 8860ft 269kts
05-Oct-17 16:00 34.089907 -118.053424 293 7820ft 262kts
05-Oct-17 16:01 34.118562 -118.133354 300 7231ft 243kts
05-Oct-17 16:02 34.153984 -118.192622 292 7970ft 199kts
05-Oct-17 16:03 34.181185 -118.260399 290 8007ft 251kts
05-Oct-17 16:04 34.184389 -118.347838 263 8012ft 271kts
05-Oct-17 16:05 34.176932 -118.440243 261 8016ft 279kts
05-Oct-17 16:06 34.163279 -118.533248 257 7952ft 283kts
05-Oct-17 16:07 34.148923 -118.626007 260 8014ft 281kts
05-Oct-17 16:08 34.134161 -118.717726 259 8055ft 281kts
05-Oct-17 16:09 34.119458 -118.811027 264 8024ft 282kts
05-Oct-17 16:10 34.133763 -118.904342 285 8015ft 284kts
05-Oct-17 16:11 34.152838 -118.997043 282 8001ft 285kts
05-Oct-17 16:12 34.171472 -119.090572 284 7990ft 284kts
05-Oct-17 16:13 34.188967 -119.179878 285 7992ft 263kts
05-Oct-17 16:14 34.205516 -119.263758 287 8010ft 248kts
05-Oct-17 16:15 34.226040 -119.344862 292 6983ft 258kts
05-Oct-17 16:16 34.252205 -119.426895 291 5893ft 260kts
05-Oct-17 16:17 34.278017 -119.501706 300 6019ft 232kts
05-Oct-17 16:18 34.312391 -119.568896 303 4489ft 229kts
05-Oct-17 16:19 34.346310 -119.632980 300 3018ft 232kts
05-Oct-17 16:20 34.379911 -119.696744 303 3012ft 218kts
05-Oct-17 16:21 34.411928 -119.757843 300 3023ft 213kts
05-Oct-17 16:22 34.429649 -119.820674 252 2990ft 184kts
05-Oct-17 16:23 34.395620 -119.826905 115 2763ft 154kts
05-Oct-17 16:24 34.395617 -119.778838 65 2278ft 130kts
05-Oct-17 16:25 34.425295 -119.772648 301 1445ft 120kts
05-Oct-17 16:26 34.428496 -119.810609 267 379ft 112kts
05-Oct-17 16:27 34.427652 -119.846877 268 20ft 85kts
05-Oct-17 16:28 34.426380 -119.853463 88 20ft 1kts
05-Oct-17 16:29 34.426382 -119.853394 88 20ft 0kts
05-Oct-17 16:30 34.426382 -119.853394 88 20ft 0kts
05-Oct-17 16:31 34.426382 -119.853394 88 20ft 0kts
05-Oct-17 16:32 34.426397 -119.852779 87 20ft 5kts
05-Oct-17 16:33 34.426457 -119.850253 88 20ft 9kts
05-Oct-17 16:34 34.426532 -119.846701 89 20ft 11kts
05-Oct-17 16:35 34.426659 -119.841979 90 20ft 16kts
05-Oct-17 16:36 34.426150 -119.837904 185 16ft 3kts
05-Oct-17 16:37 34.425693 -119.837964 186 17ft 1kts
05-Oct-17 16:38 34.424845 -119.837064 115 17ft 0kts
05-Oct-17 16:39 34.424845 -119.837064 115 17ft 0kts
05-Oct-17 16:40 34.424845 -119.837064 115 17ft 0kts
05-Oct-17 16:41 34.424845 -119.837064 115 17ft 0kts
05-Oct-17 16:42 34.424845 -119.837064 115 17ft 0kts

Navigation Log

Ident Type
1. KPSP Airport
2. PSP Navaid
3. DEWAY Fix
4. ACINS Fix
5. LENHO Fix
6. KNDAL Fix
7. PDZ Navaid
8. POM Navaid
9. COVIN Fix
10. HOPUN Fix
11. ITSME Fix
12. ELMOO Fix
13. PURMS Fix
14. DARTS Fix
15. VNY Navaid
16. SESPE Fix
17. FIM Navaid
18. HENER Fix
19. DEANO Fix
20. KWANG Fix
21. KSBA Airport